sensor_id;sensor_type;location;lat;lon;timestamp;P1;durP1;ratioP1;P2;durP2;ratioP2
42192;SDS011;52467;40.114;18.306;2023-08-20T00:01:35;0.10;;;0.10;;
42192;SDS011;52467;40.114;18.306;2023-08-20T00:04:02;0.10;;;0.10;;
42192;SDS011;52467;40.114;18.306;2023-08-20T00:06:30;0.10;;;0.10;;
42192;SDS011;52467;40.114;18.306;2023-08-20T00:08:58;0.10;;;0.10;;
42192;SDS011;52467;40.114;18.306;2023-08-20T00:11:25;0.10;;;0.10;;
42192;SDS011;52467;40.114;18.306;2023-08-20T00:13:53;0.10;;;0.10;;
42192;SDS011;52467;40.114;18.306;2023-08-20T00:16:20;0.10;;;0.10;;
42192;SDS011;52467;40.114;18.306;2023-08-20T00:18:47;0.10;;;0.10;;
42192;SDS011;52467;40.114;18.306;2023-08-20T00:21:15;0.10;;;0.10;;
42192;SDS011;52467;40.114;18.306;2023-08-20T00:23:43;0.10;;;0.10;;
42192;SDS011;52467;40.114;18.306;2023-08-20T00:26:10;0.10;;;0.10;;
42192;SDS011;52467;40.114;18.306;2023-08-20T00:28:39;0.10;;;0.10;;
42192;SDS011;52467;40.114;18.306;2023-08-20T00:31:07;0.10;;;0.10;;
42192;SDS011;52467;40.114;18.306;2023-08-20T00:33:35;0.10;;;0.10;;
42192;SDS011;52467;40.114;18.306;2023-08-20T00:36:02;0.10;;;0.10;;
42192;SDS011;52467;40.114;18.306;2023-08-20T00:38:29;0.10;;;0.10;;
42192;SDS011;52467;40.114;18.306;2023-08-20T00:40:57;0.10;;;0.10;;
42192;SDS011;52467;40.114;18.306;2023-08-20T00:43:24;0.10;;;0.10;;
42192;SDS011;52467;40.114;18.306;2023-08-20T00:45:51;0.10;;;0.10;;
42192;SDS011;52467;40.114;18.306;2023-08-20T00:48:19;0.10;;;0.10;;
42192;SDS011;52467;40.114;18.306;2023-08-20T00:50:46;0.10;;;0.10;;
42192;SDS011;52467;40.114;18.306;2023-08-20T00:53:14;0.10;;;0.10;;
42192;SDS011;52467;40.114;18.306;2023-08-20T00:55:44;0.10;;;0.10;;
42192;SDS011;52467;40.114;18.306;2023-08-20T00:58:12;0.10;;;0.10;;
42192;SDS011;52467;40.114;18.306;2023-08-20T01:00:39;0.10;;;0.10;;
42192;SDS011;52467;40.114;18.306;2023-08-20T01:03:07;0.10;;;0.10;;
42192;SDS011;52467;40.114;18.306;2023-08-20T01:05:36;0.10;;;0.10;;
42192;SDS011;52467;40.114;18.306;2023-08-20T01:08:18;0.10;;;0.10;;
42192;SDS011;52467;40.114;18.306;2023-08-20T01:10:59;0.10;;;0.10;;
42192;SDS011;52467;40.114;18.306;2023-08-20T01:13:30;0.10;;;0.10;;
42192;SDS011;52467;40.114;18.306;2023-08-20T01:15:57;0.10;;;0.10;;
42192;SDS011;52467;40.114;18.306;2023-08-20T01:18:25;0.10;;;0.10;;
42192;SDS011;52467;40.114;18.306;2023-08-20T01:20:58;0.10;;;0.10;;
42192;SDS011;52467;40.114;18.306;2023-08-20T01:28:53;0.10;;;0.10;;
42192;SDS011;52467;40.114;18.306;2023-08-20T01:31:21;0.10;;;0.10;;
42192;SDS011;52467;40.114;18.306;2023-08-20T01:33:50;0.10;;;0.10;;
42192;SDS011;52467;40.114;18.306;2023-08-20T01:36:20;0.10;;;0.10;;
42192;SDS011;52467;40.114;18.306;2023-08-20T01:38:48;0.10;;;0.10;;
42192;SDS011;52467;40.114;18.306;2023-08-20T01:41:16;0.10;;;0.10;;
42192;SDS011;52467;40.114;18.306;2023-08-20T01:43:43;0.10;;;0.10;;
42192;SDS011;52467;40.114;18.306;2023-08-20T01:46:10;0.10;;;0.10;;
42192;SDS011;52467;40.114;18.306;2023-08-20T01:48:39;0.10;;;0.10;;
42192;SDS011;52467;40.114;18.306;2023-08-20T01:51:06;0.10;;;0.10;;
42192;SDS011;52467;40.114;18.306;2023-08-20T01:53:35;0.10;;;0.10;;
42192;SDS011;52467;40.114;18.306;2023-08-20T01:56:02;0.10;;;0.10;;
42192;SDS011;52467;40.114;18.306;2023-08-20T01:58:29;0.10;;;0.10;;
42192;SDS011;52467;40.114;18.306;2023-08-20T02:00:59;0.10;;;0.10;;
42192;SDS011;52467;40.114;18.306;2023-08-20T02:03:30;0.10;;;0.10;;
42192;SDS011;52467;40.114;18.306;2023-08-20T02:05:57;0.10;;;0.10;;
42192;SDS011;52467;40.114;18.306;2023-08-20T02:08:25;0.10;;;0.10;;
42192;SDS011;52467;40.114;18.306;2023-08-20T02:10:59;0.10;;;0.10;;
42192;SDS011;52467;40.114;18.306;2023-08-20T02:13:27;0.10;;;0.10;;
42192;SDS011;52467;40.114;18.306;2023-08-20T02:16:01;0.10;;;0.10;;
42192;SDS011;52467;40.114;18.306;2023-08-20T02:18:31;0.10;;;0.10;;
42192;SDS011;52467;40.114;18.306;2023-08-20T02:21:00;0.10;;;0.10;;
42192;SDS011;52467;40.114;18.306;2023-08-20T02:23:27;0.10;;;0.10;;
42192;SDS011;52467;40.114;18.306;2023-08-20T02:25:55;0.10;;;0.10;;
42192;SDS011;52467;40.114;18.306;2023-08-20T02:28:22;0.10;;;0.10;;
42192;SDS011;52467;40.114;18.306;2023-08-20T02:30:50;0.10;;;0.10;;
42192;SDS011;52467;40.114;18.306;2023-08-20T02:33:17;0.10;;;0.10;;
42192;SDS011;52467;40.114;18.306;2023-08-20T02:35:44;0.10;;;0.10;;
42192;SDS011;52467;40.114;18.306;2023-08-20T02:38:12;0.10;;;0.10;;
42192;SDS011;52467;40.114;18.306;2023-08-20T02:40:42;0.10;;;0.10;;
42192;SDS011;52467;40.114;18.306;2023-08-20T02:43:11;0.10;;;0.10;;
42192;SDS011;52467;40.114;18.306;2023-08-20T02:45:39;0.10;;;0.10;;
42192;SDS011;52467;40.114;18.306;2023-08-20T02:48:09;0.10;;;0.10;;
42192;SDS011;52467;40.114;18.306;2023-08-20T02:50:37;0.10;;;0.10;;
42192;SDS011;52467;40.114;18.306;2023-08-20T02:53:04;0.10;;;0.10;;
42192;SDS011;52467;40.114;18.306;2023-08-20T02:55:32;0.10;;;0.10;;
42192;SDS011;52467;40.114;18.306;2023-08-20T02:58:00;0.10;;;0.10;;
42192;SDS011;52467;40.114;18.306;2023-08-20T03:00:30;0.00;;;0.00;;
42192;SDS011;52467;40.114;18.306;2023-08-20T03:02:58;0.10;;;0.10;;
42192;SDS011;52467;40.114;18.306;2023-08-20T03:05:25;0.10;;;0.10;;
42192;SDS011;52467;40.114;18.306;2023-08-20T03:07:53;0.10;;;0.10;;
42192;SDS011;52467;40.114;18.306;2023-08-20T03:10:20;0.10;;;0.10;;
42192;SDS011;52467;40.114;18.306;2023-08-20T03:12:47;0.10;;;0.10;;
42192;SDS011;52467;40.114;18.306;2023-08-20T03:15:15;0.10;;;0.10;;
42192;SDS011;52467;40.114;18.306;2023-08-20T03:17:42;0.10;;;0.10;;
42192;SDS011;52467;40.114;18.306;2023-08-20T03:20:10;0.10;;;0.10;;
42192;SDS011;52467;40.114;18.306;2023-08-20T03:22:37;0.10;;;0.10;;
42192;SDS011;52467;40.114;18.306;2023-08-20T03:25:05;0.10;;;0.10;;
42192;SDS011;52467;40.114;18.306;2023-08-20T03:27:33;0.10;;;0.10;;
42192;SDS011;52467;40.114;18.306;2023-08-20T03:30:01;0.08;;;0.08;;
42192;SDS011;52467;40.114;18.306;2023-08-20T03:32:31;0.10;;;0.10;;
42192;SDS011;52467;40.114;18.306;2023-08-20T03:34:59;0.10;;;0.10;;
42192;SDS011;52467;40.114;18.306;2023-08-20T03:37:26;0.10;;;0.10;;
42192;SDS011;52467;40.114;18.306;2023-08-20T03:39:54;0.10;;;0.10;;
42192;SDS011;52467;40.114;18.306;2023-08-20T03:42:21;0.10;;;0.10;;
42192;SDS011;52467;40.114;18.306;2023-08-20T03:44:48;0.10;;;0.10;;
42192;SDS011;52467;40.114;18.306;2023-08-20T03:47:16;0.10;;;0.10;;
42192;SDS011;52467;40.114;18.306;2023-08-20T03:49:47;0.10;;;0.10;;
42192;SDS011;52467;40.114;18.306;2023-08-20T03:52:17;0.10;;;0.10;;
42192;SDS011;52467;40.114;18.306;2023-08-20T03:54:44;0.10;;;0.10;;
42192;SDS011;52467;40.114;18.306;2023-08-20T03:57:12;0.10;;;0.10;;
42192;SDS011;52467;40.114;18.306;2023-08-20T03:59:39;0.10;;;0.10;;
42192;SDS011;52467;40.114;18.306;2023-08-20T04:02:07;0.10;;;0.10;;
42192;SDS011;52467;40.114;18.306;2023-08-20T04:04:34;0.10;;;0.10;;
42192;SDS011;52467;40.114;18.306;2023-08-20T04:07:03;0.10;;;0.10;;
42192;SDS011;52467;40.114;18.306;2023-08-20T04:09:32;0.10;;;0.10;;
42192;SDS011;52467;40.114;18.306;2023-08-20T04:12:00;0.10;;;0.10;;
42192;SDS011;52467;40.114;18.306;2023-08-20T04:14:28;0.10;;;0.10;;
42192;SDS011;52467;40.114;18.306;2023-08-20T04:16:56;0.10;;;0.10;;
42192;SDS011;52467;40.114;18.306;2023-08-20T04:19:23;0.10;;;0.10;;
42192;SDS011;52467;40.114;18.306;2023-08-20T04:21:50;0.10;;;0.10;;
42192;SDS011;52467;40.114;18.306;2023-08-20T04:24:18;0.10;;;0.10;;
42192;SDS011;52467;40.114;18.306;2023-08-20T04:26:45;0.10;;;0.10;;
42192;SDS011;52467;40.114;18.306;2023-08-20T04:29:17;0.10;;;0.10;;
42192;SDS011;52467;40.114;18.306;2023-08-20T04:31:44;0.10;;;0.10;;
42192;SDS011;52467;40.114;18.306;2023-08-20T04:34:12;0.10;;;0.10;;
42192;SDS011;52467;40.114;18.306;2023-08-20T04:36:44;0.10;;;0.10;;
42192;SDS011;52467;40.114;18.306;2023-08-20T04:39:11;0.10;;;0.10;;
42192;SDS011;52467;40.114;18.306;2023-08-20T04:41:44;0.10;;;0.10;;
42192;SDS011;52467;40.114;18.306;2023-08-20T04:44:14;0.10;;;0.10;;
42192;SDS011;52467;40.114;18.306;2023-08-20T04:46:43;0.10;;;0.10;;
42192;SDS011;52467;40.114;18.306;2023-08-20T04:49:11;0.10;;;0.10;;
42192;SDS011;52467;40.114;18.306;2023-08-20T04:51:38;0.10;;;0.10;;
42192;SDS011;52467;40.114;18.306;2023-08-20T04:54:06;0.10;;;0.10;;
42192;SDS011;52467;40.114;18.306;2023-08-20T04:56:33;0.10;;;0.10;;
42192;SDS011;52467;40.114;18.306;2023-08-20T04:59:00;0.10;;;0.10;;
42192;SDS011;52467;40.114;18.306;2023-08-20T05:01:48;0.10;;;0.10;;
42192;SDS011;52467;40.114;18.306;2023-08-20T05:04:21;0.10;;;0.10;;
42192;SDS011;52467;40.114;18.306;2023-08-20T05:06:49;0.10;;;0.10;;
42192;SDS011;52467;40.114;18.306;2023-08-20T05:09:18;0.10;;;0.10;;
42192;SDS011;52467;40.114;18.306;2023-08-20T05:11:46;0.10;;;0.10;;
42192;SDS011;52467;40.114;18.306;2023-08-20T05:14:14;0.10;;;0.10;;
42192;SDS011;52467;40.114;18.306;2023-08-20T05:16:41;0.10;;;0.10;;
42192;SDS011;52467;40.114;18.306;2023-08-20T05:19:08;0.10;;;0.10;;
42192;SDS011;52467;40.114;18.306;2023-08-20T05:21:36;0.10;;;0.10;;
42192;SDS011;52467;40.114;18.306;2023-08-20T05:24:04;0.10;;;0.10;;
42192;SDS011;52467;40.114;18.306;2023-08-20T05:26:31;0.10;;;0.10;;
42192;SDS011;52467;40.114;18.306;2023-08-20T05:28:59;0.10;;;0.10;;
42192;SDS011;52467;40.114;18.306;2023-08-20T05:31:26;0.10;;;0.10;;
42192;SDS011;52467;40.114;18.306;2023-08-20T05:33:54;0.10;;;0.10;;
42192;SDS011;52467;40.114;18.306;2023-08-20T05:36:23;0.10;;;0.10;;
42192;SDS011;52467;40.114;18.306;2023-08-20T05:38:50;0.10;;;0.10;;
42192;SDS011;52467;40.114;18.306;2023-08-20T05:41:19;0.00;;;0.00;;
42192;SDS011;52467;40.114;18.306;2023-08-20T05:43:47;0.10;;;0.10;;
42192;SDS011;52467;40.114;18.306;2023-08-20T05:46:14;0.10;;;0.10;;
42192;SDS011;52467;40.114;18.306;2023-08-20T05:48:42;0.10;;;0.10;;
42192;SDS011;52467;40.114;18.306;2023-08-20T05:51:10;0.10;;;0.10;;
42192;SDS011;52467;40.114;18.306;2023-08-20T05:53:38;0.08;;;0.08;;
42192;SDS011;52467;40.114;18.306;2023-08-20T05:56:05;0.10;;;0.10;;
42192;SDS011;52467;40.114;18.306;2023-08-20T05:58:33;0.10;;;0.10;;
42192;SDS011;52467;40.114;18.306;2023-08-20T06:01:01;0.10;;;0.10;;
42192;SDS011;52467;40.114;18.306;2023-08-20T06:03:28;0.10;;;0.10;;
42192;SDS011;52467;40.114;18.306;2023-08-20T06:05:59;0.10;;;0.10;;
42192;SDS011;52467;40.114;18.306;2023-08-20T06:08:28;0.10;;;0.10;;
42192;SDS011;52467;40.114;18.306;2023-08-20T06:10:55;0.10;;;0.10;;
42192;SDS011;52467;40.114;18.306;2023-08-20T06:13:23;0.10;;;0.10;;
42192;SDS011;52467;40.114;18.306;2023-08-20T06:15:50;0.10;;;0.10;;
42192;SDS011;52467;40.114;18.306;2023-08-20T06:18:17;0.10;;;0.10;;
42192;SDS011;52467;40.114;18.306;2023-08-20T06:20:45;0.10;;;0.10;;
42192;SDS011;52467;40.114;18.306;2023-08-20T06:23:12;0.10;;;0.10;;
42192;SDS011;52467;40.114;18.306;2023-08-20T06:25:40;0.10;;;0.10;;
42192;SDS011;52467;40.114;18.306;2023-08-20T06:28:08;0.10;;;0.10;;
42192;SDS011;52467;40.114;18.306;2023-08-20T06:30:36;0.10;;;0.10;;
42192;SDS011;52467;40.114;18.306;2023-08-20T06:33:03;0.10;;;0.10;;
42192;SDS011;52467;40.114;18.306;2023-08-20T06:35:31;0.10;;;0.10;;
42192;SDS011;52467;40.114;18.306;2023-08-20T06:38:00;0.10;;;0.10;;
42192;SDS011;52467;40.114;18.306;2023-08-20T06:40:28;0.10;;;0.10;;
42192;SDS011;52467;40.114;18.306;2023-08-20T06:42:55;0.10;;;0.10;;
42192;SDS011;52467;40.114;18.306;2023-08-20T06:45:22;0.10;;;0.10;;
42192;SDS011;52467;40.114;18.306;2023-08-20T06:47:51;0.10;;;0.10;;
42192;SDS011;52467;40.114;18.306;2023-08-20T06:50:18;0.10;;;0.10;;
42192;SDS011;52467;40.114;18.306;2023-08-20T06:52:46;0.10;;;0.10;;
42192;SDS011;52467;40.114;18.306;2023-08-20T06:55:13;0.10;;;0.10;;
42192;SDS011;52467;40.114;18.306;2023-08-20T06:57:40;0.10;;;0.10;;
42192;SDS011;52467;40.114;18.306;2023-08-20T07:00:08;0.10;;;0.10;;
42192;SDS011;52467;40.114;18.306;2023-08-20T07:02:35;0.10;;;0.10;;
42192;SDS011;52467;40.114;18.306;2023-08-20T07:05:02;0.10;;;0.10;;
42192;SDS011;52467;40.114;18.306;2023-08-20T07:07:30;0.10;;;0.10;;
42192;SDS011;52467;40.114;18.306;2023-08-20T07:09:57;0.10;;;0.10;;
42192;SDS011;52467;40.114;18.306;2023-08-20T07:12:25;0.10;;;0.10;;
42192;SDS011;52467;40.114;18.306;2023-08-20T07:14:52;0.10;;;0.10;;
42192;SDS011;52467;40.114;18.306;2023-08-20T07:17:19;0.10;;;0.10;;
42192;SDS011;52467;40.114;18.306;2023-08-20T07:19:47;0.10;;;0.10;;
42192;SDS011;52467;40.114;18.306;2023-08-20T07:22:14;0.10;;;0.10;;
42192;SDS011;52467;40.114;18.306;2023-08-20T07:24:41;0.10;;;0.10;;
42192;SDS011;52467;40.114;18.306;2023-08-20T07:27:09;0.10;;;0.10;;
42192;SDS011;52467;40.114;18.306;2023-08-20T07:29:40;0.10;;;0.10;;
42192;SDS011;52467;40.114;18.306;2023-08-20T07:32:07;0.10;;;0.10;;
42192;SDS011;52467;40.114;18.306;2023-08-20T07:34:35;0.10;;;0.10;;
42192;SDS011;52467;40.114;18.306;2023-08-20T07:37:02;0.10;;;0.10;;
42192;SDS011;52467;40.114;18.306;2023-08-20T07:39:31;0.10;;;0.10;;
42192;SDS011;52467;40.114;18.306;2023-08-20T07:41:58;0.10;;;0.10;;
42192;SDS011;52467;40.114;18.306;2023-08-20T07:44:27;0.10;;;0.10;;
42192;SDS011;52467;40.114;18.306;2023-08-20T07:46:55;0.10;;;0.10;;
42192;SDS011;52467;40.114;18.306;2023-08-20T07:49:22;0.10;;;0.10;;
42192;SDS011;52467;40.114;18.306;2023-08-20T07:51:49;0.10;;;0.10;;
42192;SDS011;52467;40.114;18.306;2023-08-20T07:54:19;0.10;;;0.10;;
42192;SDS011;52467;40.114;18.306;2023-08-20T07:56:46;0.10;;;0.10;;
42192;SDS011;52467;40.114;18.306;2023-08-20T07:59:13;0.10;;;0.10;;
42192;SDS011;52467;40.114;18.306;2023-08-20T08:01:40;0.10;;;0.10;;
42192;SDS011;52467;40.114;18.306;2023-08-20T08:04:08;0.10;;;0.10;;
42192;SDS011;52467;40.114;18.306;2023-08-20T08:06:35;0.10;;;0.10;;
42192;SDS011;52467;40.114;18.306;2023-08-20T08:09:25;0.10;;;0.10;;
42192;SDS011;52467;40.114;18.306;2023-08-20T08:11:54;0.10;;;0.10;;
42192;SDS011;52467;40.114;18.306;2023-08-20T08:14:21;0.10;;;0.10;;
42192;SDS011;52467;40.114;18.306;2023-08-20T08:16:49;0.10;;;0.10;;
42192;SDS011;52467;40.114;18.306;2023-08-20T08:19:17;0.10;;;0.10;;
42192;SDS011;52467;40.114;18.306;2023-08-20T08:21:45;0.10;;;0.10;;
42192;SDS011;52467;40.114;18.306;2023-08-20T08:24:12;0.10;;;0.10;;
42192;SDS011;52467;40.114;18.306;2023-08-20T08:26:40;0.10;;;0.10;;
42192;SDS011;52467;40.114;18.306;2023-08-20T08:29:08;0.10;;;0.10;;
42192;SDS011;52467;40.114;18.306;2023-08-20T08:31:36;0.10;;;0.10;;
42192;SDS011;52467;40.114;18.306;2023-08-20T08:34:03;0.10;;;0.10;;
42192;SDS011;52467;40.114;18.306;2023-08-20T08:36:31;0.10;;;0.10;;
42192;SDS011;52467;40.114;18.306;2023-08-20T08:38:58;0.10;;;0.10;;
42192;SDS011;52467;40.114;18.306;2023-08-20T08:41:26;0.10;;;0.10;;
42192;SDS011;52467;40.114;18.306;2023-08-20T08:43:53;0.10;;;0.10;;
42192;SDS011;52467;40.114;18.306;2023-08-20T08:46:23;0.05;;;0.05;;
42192;SDS011;52467;40.114;18.306;2023-08-20T08:48:51;0.10;;;0.10;;
42192;SDS011;52467;40.114;18.306;2023-08-20T08:51:19;0.10;;;0.10;;
42192;SDS011;52467;40.114;18.306;2023-08-20T08:53:47;0.10;;;0.10;;
42192;SDS011;52467;40.114;18.306;2023-08-20T08:56:14;0.10;;;0.10;;
42192;SDS011;52467;40.114;18.306;2023-08-20T08:58:41;0.10;;;0.10;;
42192;SDS011;52467;40.114;18.306;2023-08-20T09:01:09;0.10;;;0.10;;
42192;SDS011;52467;40.114;18.306;2023-08-20T09:03:36;0.10;;;0.10;;
42192;SDS011;52467;40.114;18.306;2023-08-20T09:06:08;0.10;;;0.10;;
42192;SDS011;52467;40.114;18.306;2023-08-20T09:08:36;0.10;;;0.10;;
42192;SDS011;52467;40.114;18.306;2023-08-20T09:11:04;0.10;;;0.10;;
42192;SDS011;52467;40.114;18.306;2023-08-20T09:16:11;0.10;;;0.10;;
42192;SDS011;52467;40.114;18.306;2023-08-20T09:21:11;0.10;;;0.10;;
42192;SDS011;52467;40.114;18.306;2023-08-20T09:23:39;0.00;;;0.00;;
42192;SDS011;52467;40.114;18.306;2023-08-20T09:26:07;0.10;;;0.10;;
42192;SDS011;52467;40.114;18.306;2023-08-20T09:28:41;0.05;;;0.05;;
42192;SDS011;52467;40.114;18.306;2023-08-20T09:31:10;0.10;;;0.10;;
42192;SDS011;52467;40.114;18.306;2023-08-20T09:33:50;0.10;;;0.10;;
42192;SDS011;52467;40.114;18.306;2023-08-20T09:36:19;0.10;;;0.10;;
42192;SDS011;52467;40.114;18.306;2023-08-20T09:38:56;0.10;;;0.10;;
42192;SDS011;52467;40.114;18.306;2023-08-20T09:41:23;0.10;;;0.10;;
42192;SDS011;52467;40.114;18.306;2023-08-20T09:43:56;0.10;;;0.10;;
42192;SDS011;52467;40.114;18.306;2023-08-20T09:46:24;0.10;;;0.10;;
42192;SDS011;52467;40.114;18.306;2023-08-20T09:48:57;0.10;;;0.10;;
42192;SDS011;52467;40.114;18.306;2023-08-20T09:51:25;0.10;;;0.10;;
42192;SDS011;52467;40.114;18.306;2023-08-20T09:54:11;0.10;;;0.10;;
42192;SDS011;52467;40.114;18.306;2023-08-20T09:56:42;0.10;;;0.10;;
42192;SDS011;52467;40.114;18.306;2023-08-20T09:59:10;0.10;;;0.10;;
42192;SDS011;52467;40.114;18.306;2023-08-20T10:01:39;0.10;;;0.10;;
42192;SDS011;52467;40.114;18.306;2023-08-20T10:04:06;0.10;;;0.10;;
42192;SDS011;52467;40.114;18.306;2023-08-20T10:06:34;0.03;;;0.03;;
42192;SDS011;52467;40.114;18.306;2023-08-20T10:09:02;0.03;;;0.03;;
42192;SDS011;52467;40.114;18.306;2023-08-20T10:11:30;0.10;;;0.10;;
42192;SDS011;52467;40.114;18.306;2023-08-20T10:13:57;0.10;;;0.10;;
42192;SDS011;52467;40.114;18.306;2023-08-20T10:16:27;0.10;;;0.10;;
42192;SDS011;52467;40.114;18.306;2023-08-20T10:18:54;0.10;;;0.10;;
42192;SDS011;52467;40.114;18.306;2023-08-20T10:21:26;0.10;;;0.10;;
42192;SDS011;52467;40.114;18.306;2023-08-20T10:23:54;0.00;;;0.00;;
42192;SDS011;52467;40.114;18.306;2023-08-20T10:26:21;0.10;;;0.10;;
42192;SDS011;52467;40.114;18.306;2023-08-20T10:28:50;0.10;;;0.10;;
42192;SDS011;52467;40.114;18.306;2023-08-20T10:31:18;0.10;;;0.10;;
42192;SDS011;52467;40.114;18.306;2023-08-20T10:36:17;0.10;;;0.10;;
42192;SDS011;52467;40.114;18.306;2023-08-20T10:38:49;0.10;;;0.10;;
42192;SDS011;52467;40.114;18.306;2023-08-20T10:41:17;0.10;;;0.10;;
42192;SDS011;52467;40.114;18.306;2023-08-20T10:43:57;0.10;;;0.10;;
42192;SDS011;52467;40.114;18.306;2023-08-20T10:46:27;0.10;;;0.10;;
42192;SDS011;52467;40.114;18.306;2023-08-20T10:48:58;0.10;;;0.10;;
42192;SDS011;52467;40.114;18.306;2023-08-20T10:56:37;0.10;;;0.10;;
42192;SDS011;52467;40.114;18.306;2023-08-20T11:01:41;0.10;;;0.10;;
42192;SDS011;52467;40.114;18.306;2023-08-20T11:04:12;0.10;;;0.10;;
42192;SDS011;52467;40.114;18.306;2023-08-20T11:06:44;0.10;;;0.10;;
42192;SDS011;52467;40.114;18.306;2023-08-20T11:09:11;0.10;;;0.10;;
42192;SDS011;52467;40.114;18.306;2023-08-20T11:11:40;0.10;;;0.10;;
42192;SDS011;52467;40.114;18.306;2023-08-20T11:14:13;0.10;;;0.10;;
42192;SDS011;52467;40.114;18.306;2023-08-20T11:16:41;0.10;;;0.10;;
42192;SDS011;52467;40.114;18.306;2023-08-20T11:19:10;0.10;;;0.10;;
42192;SDS011;52467;40.114;18.306;2023-08-20T11:21:39;0.10;;;0.10;;
42192;SDS011;52467;40.114;18.306;2023-08-20T11:24:07;0.10;;;0.10;;
42192;SDS011;52467;40.114;18.306;2023-08-20T11:26:35;0.10;;;0.10;;
42192;SDS011;52467;40.114;18.306;2023-08-20T11:29:05;0.10;;;0.10;;
42192;SDS011;52467;40.114;18.306;2023-08-20T11:31:34;0.10;;;0.10;;
42192;SDS011;52467;40.114;18.306;2023-08-20T11:34:03;0.10;;;0.10;;
42192;SDS011;52467;40.114;18.306;2023-08-20T11:36:30;0.10;;;0.10;;
42192;SDS011;52467;40.114;18.306;2023-08-20T11:38:58;0.10;;;0.10;;
42192;SDS011;52467;40.114;18.306;2023-08-20T11:41:25;0.10;;;0.10;;
42192;SDS011;52467;40.114;18.306;2023-08-20T11:43:53;0.10;;;0.10;;
42192;SDS011;52467;40.114;18.306;2023-08-20T11:46:21;0.10;;;0.10;;
42192;SDS011;52467;40.114;18.306;2023-08-20T11:49:05;0.10;;;0.10;;
42192;SDS011;52467;40.114;18.306;2023-08-20T11:51:38;0.10;;;0.10;;
42192;SDS011;52467;40.114;18.306;2023-08-20T11:54:08;0.10;;;0.10;;
42192;SDS011;52467;40.114;18.306;2023-08-20T11:56:43;0.10;;;0.10;;
42192;SDS011;52467;40.114;18.306;2023-08-20T11:59:10;0.10;;;0.10;;
42192;SDS011;52467;40.114;18.306;2023-08-20T12:01:38;0.10;;;0.10;;
42192;SDS011;52467;40.114;18.306;2023-08-20T12:04:06;0.10;;;0.10;;
42192;SDS011;52467;40.114;18.306;2023-08-20T12:06:35;0.10;;;0.10;;
42192;SDS011;52467;40.114;18.306;2023-08-20T12:09:19;0.10;;;0.10;;
42192;SDS011;52467;40.114;18.306;2023-08-20T12:11:50;0.10;;;0.10;;
42192;SDS011;52467;40.114;18.306;2023-08-20T12:14:22;0.10;;;0.10;;
42192;SDS011;52467;40.114;18.306;2023-08-20T12:16:50;0.10;;;0.10;;
42192;SDS011;52467;40.114;18.306;2023-08-20T12:19:18;0.10;;;0.10;;
42192;SDS011;52467;40.114;18.306;2023-08-20T12:21:45;0.10;;;0.10;;
42192;SDS011;52467;40.114;18.306;2023-08-20T12:24:13;0.10;;;0.10;;
42192;SDS011;52467;40.114;18.306;2023-08-20T12:26:40;0.10;;;0.10;;
42192;SDS011;52467;40.114;18.306;2023-08-20T12:29:08;0.10;;;0.10;;
42192;SDS011;52467;40.114;18.306;2023-08-20T12:31:36;0.10;;;0.10;;
42192;SDS011;52467;40.114;18.306;2023-08-20T12:34:05;0.10;;;0.10;;
42192;SDS011;52467;40.114;18.306;2023-08-20T12:36:32;0.10;;;0.10;;
42192;SDS011;52467;40.114;18.306;2023-08-20T12:38:59;0.10;;;0.10;;
42192;SDS011;52467;40.114;18.306;2023-08-20T12:41:27;0.10;;;0.10;;
42192;SDS011;52467;40.114;18.306;2023-08-20T12:43:54;0.10;;;0.10;;
42192;SDS011;52467;40.114;18.306;2023-08-20T12:46:21;0.10;;;0.10;;
42192;SDS011;52467;40.114;18.306;2023-08-20T12:48:49;0.10;;;0.10;;
42192;SDS011;52467;40.114;18.306;2023-08-20T12:51:17;0.10;;;0.10;;
42192;SDS011;52467;40.114;18.306;2023-08-20T12:53:44;0.10;;;0.10;;
42192;SDS011;52467;40.114;18.306;2023-08-20T12:56:12;0.10;;;0.10;;
42192;SDS011;52467;40.114;18.306;2023-08-20T12:58:39;0.10;;;0.10;;
42192;SDS011;52467;40.114;18.306;2023-08-20T13:01:07;0.10;;;0.10;;
42192;SDS011;52467;40.114;18.306;2023-08-20T13:03:34;0.10;;;0.10;;
42192;SDS011;52467;40.114;18.306;2023-08-20T13:06:02;0.10;;;0.10;;
42192;SDS011;52467;40.114;18.306;2023-08-20T13:08:29;0.10;;;0.10;;
42192;SDS011;52467;40.114;18.306;2023-08-20T13:10:57;0.10;;;0.10;;
42192;SDS011;52467;40.114;18.306;2023-08-20T13:13:25;0.10;;;0.10;;
42192;SDS011;52467;40.114;18.306;2023-08-20T13:15:52;0.10;;;0.10;;
42192;SDS011;52467;40.114;18.306;2023-08-20T13:18:20;0.10;;;0.10;;
42192;SDS011;52467;40.114;18.306;2023-08-20T13:20:54;0.20;;;0.20;;
42192;SDS011;52467;40.114;18.306;2023-08-20T13:23:22;0.20;;;0.20;;
42192;SDS011;52467;40.114;18.306;2023-08-20T13:25:50;0.20;;;0.20;;
42192;SDS011;52467;40.114;18.306;2023-08-20T13:28:17;0.20;;;0.20;;
42192;SDS011;52467;40.114;18.306;2023-08-20T13:30:45;0.20;;;0.20;;
42192;SDS011;52467;40.114;18.306;2023-08-20T13:33:13;0.20;;;0.20;;
42192;SDS011;52467;40.114;18.306;2023-08-20T13:35:41;0.30;;;0.30;;
42192;SDS011;52467;40.114;18.306;2023-08-20T13:38:08;0.30;;;0.30;;
42192;SDS011;52467;40.114;18.306;2023-08-20T13:40:36;0.30;;;0.30;;
42192;SDS011;52467;40.114;18.306;2023-08-20T13:43:03;0.30;;;0.30;;
42192;SDS011;52467;40.114;18.306;2023-08-20T13:45:31;0.30;;;0.30;;
42192;SDS011;52467;40.114;18.306;2023-08-20T13:47:58;0.30;;;0.30;;
42192;SDS011;52467;40.114;18.306;2023-08-20T13:50:26;0.30;;;0.30;;
42192;SDS011;52467;40.114;18.306;2023-08-20T13:52:53;0.30;;;0.30;;
42192;SDS011;52467;40.114;18.306;2023-08-20T13:55:22;0.30;;;0.30;;
42192;SDS011;52467;40.114;18.306;2023-08-20T13:57:49;0.30;;;0.30;;
42192;SDS011;52467;40.114;18.306;2023-08-20T14:00:17;0.30;;;0.30;;
42192;SDS011;52467;40.114;18.306;2023-08-20T14:02:44;0.40;;;0.40;;
42192;SDS011;52467;40.114;18.306;2023-08-20T14:05:11;0.32;;;0.32;;
42192;SDS011;52467;40.114;18.306;2023-08-20T14:07:39;0.30;;;0.30;;
42192;SDS011;52467;40.114;18.306;2023-08-20T14:10:08;0.30;;;0.30;;
42192;SDS011;52467;40.114;18.306;2023-08-20T14:12:38;0.30;;;0.30;;
42192;SDS011;52467;40.114;18.306;2023-08-20T14:15:06;0.30;;;0.30;;
42192;SDS011;52467;40.114;18.306;2023-08-20T14:17:34;0.30;;;0.30;;
42192;SDS011;52467;40.114;18.306;2023-08-20T14:20:02;0.30;;;0.30;;
42192;SDS011;52467;40.114;18.306;2023-08-20T14:22:33;0.30;;;0.30;;
42192;SDS011;52467;40.114;18.306;2023-08-20T14:25:00;0.30;;;0.30;;
42192;SDS011;52467;40.114;18.306;2023-08-20T14:27:28;0.30;;;0.30;;
42192;SDS011;52467;40.114;18.306;2023-08-20T14:29:55;0.30;;;0.30;;
42192;SDS011;52467;40.114;18.306;2023-08-20T14:32:23;0.30;;;0.30;;
42192;SDS011;52467;40.114;18.306;2023-08-20T14:34:51;0.30;;;0.30;;
42192;SDS011;52467;40.114;18.306;2023-08-20T14:37:18;0.30;;;0.30;;
42192;SDS011;52467;40.114;18.306;2023-08-20T14:39:46;0.30;;;0.30;;
42192;SDS011;52467;40.114;18.306;2023-08-20T14:42:13;0.30;;;0.30;;
42192;SDS011;52467;40.114;18.306;2023-08-20T14:44:40;0.30;;;0.30;;
42192;SDS011;52467;40.114;18.306;2023-08-20T14:47:08;0.30;;;0.30;;
42192;SDS011;52467;40.114;18.306;2023-08-20T14:49:35;0.30;;;0.30;;
42192;SDS011;52467;40.114;18.306;2023-08-20T14:52:02;0.30;;;0.30;;
42192;SDS011;52467;40.114;18.306;2023-08-20T14:54:35;0.30;;;0.30;;
42192;SDS011;52467;40.114;18.306;2023-08-20T14:57:02;0.30;;;0.30;;
42192;SDS011;52467;40.114;18.306;2023-08-20T14:59:30;0.20;;;0.20;;
42192;SDS011;52467;40.114;18.306;2023-08-20T15:01:57;0.20;;;0.20;;